BIA weather

Bastia-Poretta Airport
Bastia/Poretta, Corsica, France

Public forecast

Using degrees Celsius for public forecast. Weather courtesy of forecast.io.

METAR (pilot weather report)

Retrieved 2019/06/25 08:30 UTC (21 minutes ago):

LFKB 250830Z AUTO 02005KT 340V060 CAVOK 30/18 Q1020 NOSIG

TAF (pilot weather forecast)

Retrieved 2019/06/25 09:22 UTC (0 seconds ago):

TAF LFKB 250800Z 2509/2609 08010KT CAVOK TX33/2513Z TN23/2603Z BECMG 2518/2520 24004KT